createdAt,value
2023-03-03T00:01:12.866Z,13.88
2023-03-03T12:46:46.126Z,16.38
2023-03-03T12:49:14.470Z,12.18
2023-03-03T12:51:52.439Z,22.83
2023-03-03T12:54:37.174Z,12.85
2023-03-03T12:57:14.904Z,9.35
2023-03-03T12:59:51.733Z,8.18
2023-03-03T13:02:46.148Z,10.38
2023-03-03T13:05:28.289Z,13.70
2023-03-03T13:08:31.117Z,7.60
2023-03-03T13:11:11.997Z,8.38
2023-03-03T13:13:48.315Z,5.45
2023-03-03T13:16:31.919Z,4.60
2023-03-03T15:11:28.887Z,16.20
2023-03-03T15:14:13.310Z,18.83
2023-03-03T15:16:44.823Z,20.73
2023-03-03T15:19:42.068Z,25.02
2023-03-03T15:22:21.054Z,33.83
2023-03-03T15:24:57.637Z,39.00
2023-03-03T15:27:32.583Z,37.38
2023-03-03T15:32:42.867Z,42.88
2023-03-03T15:35:27.146Z,35.53
2023-03-03T15:38:01.091Z,32.28
2023-03-03T15:40:30.660Z,34.63
2023-03-03T15:43:14.300Z,30.33
2023-03-03T15:45:48.846Z,29.80
2023-03-03T15:48:37.179Z,26.67
2023-03-03T15:51:11.590Z,28.38
2023-03-03T15:53:53.864Z,32.50
2023-03-03T15:56:32.035Z,25.13
2023-03-03T15:59:21.572Z,24.98
2023-03-03T16:01:57.749Z,18.58
2023-03-03T16:04:29.819Z,20.98
2023-03-03T16:07:03.929Z,16.25
2023-03-03T16:09:48.546Z,21.03
2023-03-03T16:12:27.374Z,14.88
2023-03-03T16:15:18.822Z,15.52
2023-03-03T16:17:54.280Z,13.25
2023-03-03T16:20:26.779Z,17.17
2023-03-03T16:23:28.366Z,16.67
2023-03-03T16:26:07.931Z,12.50
2023-03-03T16:28:45.708Z,30.05
2023-03-03T16:31:22.865Z,16.23
2023-03-03T16:33:58.136Z,10.93
2023-03-03T16:36:32.925Z,13.70
2023-03-03T16:39:05.424Z,12.80
2023-03-03T16:41:47.883Z,10.98
2023-03-03T16:44:32.891Z,10.50
2023-03-03T16:47:13.424Z,5.95
2023-03-03T16:49:49.795Z,8.02
2023-03-03T16:52:24.414Z,6.97
2023-03-03T16:54:58.140Z,7.18
2023-03-03T16:57:32.342Z,6.75
2023-03-03T17:00:10.447Z,7.05
2023-03-03T17:02:54.769Z,3.53
2023-03-03T17:05:30.773Z,5.25
2023-03-03T17:08:13.307Z,3.33
2023-03-03T17:10:46.897Z,5.38
2023-03-03T17:13:29.966Z,6.22
2023-03-03T17:16:09.943Z,3.78
2023-03-03T17:18:50.382Z,5.30
2023-03-03T17:21:28.956Z,3.85
2023-03-03T17:24:07.326Z,5.28
2023-03-03T17:26:50.620Z,5.78
2023-03-03T17:29:38.087Z,5.38
2023-03-03T17:32:16.606Z,3.70
2023-03-03T17:34:59.644Z,2.95
2023-03-03T17:37:37.196Z,8.27
2023-03-03T17:40:18.562Z,2.67
2023-03-03T17:42:53.851Z,2.70
2023-03-03T17:45:23.877Z,3.25
2023-03-03T17:48:07.402Z,3.63
2023-03-03T17:51:06.013Z,3.30
2023-03-03T17:53:57.367Z,3.60
2023-03-03T17:56:29.547Z,3.08
2023-03-03T17:59:26.448Z,3.58
2023-03-03T18:02:38.998Z,3.50
2023-03-03T18:05:35.901Z,5.25
2023-03-03T18:08:36.505Z,6.15
2023-03-03T18:11:47.394Z,6.38
2023-03-03T18:14:53.832Z,8.00
2023-03-03T18:17:48.934Z,9.75
2023-03-03T18:20:47.013Z,10.35
2023-03-03T18:23:33.990Z,11.80
2023-03-03T18:26:02.889Z,12.02
2023-03-03T18:28:47.393Z,12.63
2023-03-03T18:31:25.245Z,12.60
2023-03-03T18:34:07.993Z,13.18
2023-03-03T18:36:38.705Z,17.73
2023-03-03T18:39:14.865Z,15.10
2023-03-03T18:42:11.419Z,18.00
2023-03-03T18:44:39.572Z,17.88
2023-03-03T18:47:07.571Z,20.27
2023-03-03T18:49:55.962Z,24.42
2023-03-03T18:52:26.970Z,20.27
2023-03-03T18:55:25.897Z,23.85
2023-03-03T18:58:31.405Z,19.95
2023-03-03T19:01:03.790Z,20.80
2023-03-03T19:03:36.161Z,26.70
2023-03-03T19:06:10.756Z,26.13
2023-03-03T19:08:56.240Z,24.45
2023-03-03T19:11:42.370Z,25.55
2023-03-03T19:14:31.716Z,27.77
2023-03-03T19:17:00.894Z,30.65
2023-03-03T19:19:34.271Z,29.42
2023-03-03T19:22:25.486Z,34.75
2023-03-03T19:25:20.553Z,29.58
2023-03-03T19:27:59.336Z,29.30
2023-03-03T19:30:43.063Z,33.00
2023-03-03T19:33:29.401Z,43.20
2023-03-03T19:36:34.524Z,55.90
2023-03-03T19:39:33.430Z,44.85
2023-03-03T19:42:11.093Z,46.90
2023-03-03T19:44:57.190Z,40.80
2023-03-03T19:47:37.757Z,42.47
2023-03-03T19:50:19.879Z,55.95
2023-03-03T19:52:55.530Z,45.85
2023-03-03T19:55:31.302Z,43.75
2023-03-03T19:58:07.644Z,45.85
2023-03-03T20:00:42.283Z,43.67
2023-03-03T20:03:35.916Z,47.63
2023-03-03T20:06:18.474Z,44.38
2023-03-03T20:08:57.478Z,52.00
2023-03-03T20:11:47.926Z,51.00
2023-03-03T20:14:41.493Z,53.15
2023-03-03T20:17:54.391Z,48.13
2023-03-03T20:20:42.185Z,58.63
2023-03-03T20:23:19.671Z,55.70
2023-03-03T20:25:50.983Z,62.00
2023-03-03T20:28:39.549Z,52.45
2023-03-03T20:31:16.805Z,56.47
2023-03-03T20:33:54.183Z,55.58
2023-03-03T20:36:31.774Z,51.25
2023-03-03T20:39:07.416Z,48.13
2023-03-03T20:41:52.889Z,51.97
2023-03-03T20:44:34.042Z,52.10
2023-03-03T20:47:09.776Z,53.50
2023-03-03T20:49:58.453Z,43.97
2023-03-03T20:52:33.237Z,44.88
2023-03-03T20:55:10.870Z,42.35
2023-03-03T20:57:47.090Z,39.88
2023-03-03T21:00:21.538Z,41.08
2023-03-03T21:02:56.846Z,44.70
2023-03-03T21:05:26.228Z,36.17
2023-03-03T21:07:57.106Z,42.45
2023-03-03T21:10:26.873Z,36.83
2023-03-03T21:12:56.647Z,45.45
2023-03-03T21:15:27.922Z,38.83
2023-03-03T21:17:57.579Z,41.20
2023-03-03T21:20:30.584Z,38.40
2023-03-03T21:22:59.769Z,44.33
2023-03-03T21:25:49.104Z,33.47
2023-03-03T21:28:23.205Z,38.42
2023-03-03T21:31:12.448Z,36.03
2023-03-03T21:33:52.531Z,30.08
2023-03-03T21:36:25.049Z,27.15
2023-03-03T21:38:54.722Z,38.58
2023-03-03T21:41:22.619Z,29.65
2023-03-03T21:43:52.328Z,35.83
2023-03-03T21:46:21.352Z,29.30
2023-03-03T21:48:49.634Z,29.95
2023-03-03T21:51:17.992Z,40.75
2023-03-03T21:53:47.726Z,35.50
2023-03-03T21:56:15.744Z,27.35
2023-03-03T21:58:44.108Z,30.80
2023-03-03T22:01:12.127Z,25.35
2023-03-03T22:03:40.594Z,30.65
2023-03-03T22:06:08.722Z,31.40
2023-03-03T22:08:36.634Z,29.77
2023-03-03T22:11:06.161Z,31.05
2023-03-03T22:13:34.028Z,29.70
2023-03-03T22:16:02.100Z,28.95
2023-03-03T22:18:30.076Z,28.50
2023-03-03T22:20:58.200Z,29.13
2023-03-03T22:23:26.553Z,34.40
2023-03-03T22:25:54.425Z,28.40
2023-03-03T22:28:24.198Z,30.08
2023-03-03T22:30:52.167Z,31.88
2023-03-03T22:33:20.065Z,34.97
2023-03-03T22:35:47.996Z,29.92
2023-03-03T22:38:16.034Z,37.00
2023-03-03T22:40:44.106Z,34.83
2023-03-03T22:43:14.443Z,33.67
2023-03-03T22:45:44.616Z,39.00
2023-03-03T22:48:12.929Z,41.47
2023-03-03T22:50:42.818Z,38.72
2023-03-03T22:53:10.861Z,37.60
2023-03-03T22:55:38.778Z,35.75
2023-03-03T22:58:09.405Z,41.92
2023-03-03T23:00:39.052Z,43.47
2023-03-03T23:03:08.920Z,46.05
2023-03-03T23:05:37.273Z,46.90
2023-03-03T23:08:07.194Z,43.65
2023-03-03T23:10:35.623Z,43.15
2023-03-03T23:13:03.679Z,52.00
2023-03-03T23:15:32.164Z,51.25
2023-03-03T23:18:00.109Z,49.88
2023-03-03T23:20:31.543Z,63.20
2023-03-03T23:22:59.941Z,50.40
2023-03-03T23:25:28.960Z,65.22
2023-03-03T23:27:57.330Z,47.63
2023-03-03T23:30:25.373Z,43.33
2023-03-03T23:32:54.226Z,46.20
2023-03-03T23:35:22.393Z,33.50
2023-03-03T23:37:51.710Z,29.00
2023-03-03T23:40:20.996Z,27.60
2023-03-03T23:42:48.880Z,27.83
2023-03-03T23:45:16.838Z,28.23
2023-03-03T23:47:44.871Z,28.48
2023-03-03T23:50:13.915Z,22.77
2023-03-03T23:52:42.054Z,21.60
2023-03-03T23:55:12.119Z,19.67
2023-03-03T23:57:40.083Z,19.45
